Time;durP1;ratioP1;P1;durP2;ratioP2;P2;SDS_P1;SDS_P2;PMS_P1;PMS_P2;Temp;Humidity;BMP_temperature;BMP_pressure;BME280_temperature;BME280_humidity;BME280_pressure;Samples;Min_cycle;Max_cycle;Signal;HPM_P1;HPM_P2
2023/07/20 00:02:13;;;;;;;1.52;0.65;;;;;;;14.72;96.08;100580.69;6057000;28;20022;-68
2023/07/20 00:05:09;;;;;;;4.35;1.08;;;;;;;14.58;96.53;100593.94;6073183;28;20029;-68
2023/07/20 00:08:04;;;;;;;2.00;0.90;;;;;;;14.37;97.55;100580.38;6071093;28;20072;-68
2023/07/20 00:10:59;;;;;;;1.60;0.80;;;;;;;14.43;98.59;100593.84;6049508;28;20114;-68
2023/07/20 00:13:55;;;;;;;1.70;0.80;;;;;;;14.40;98.19;100580.03;6049182;28;20030;-68
2023/07/20 00:16:55;;;;;;;1.03;0.67;;;;;;;14.44;98.51;100592.00;6049539;28;20026;-68
2023/07/20 00:19:50;;;;;;;1.13;0.80;;;;;;;14.43;99.18;100601.03;6049659;28;20273;-68
2023/07/20 00:22:46;;;;;;;2.03;0.90;;;;;;;14.49;99.27;100600.31;6049512;28;20049;-68
2023/07/20 00:25:41;;;;;;;1.17;0.80;;;;;;;14.47;98.76;100583.66;6049725;28;20501;-67
2023/07/20 00:28:36;;;;;;;1.47;0.70;;;;;;;14.36;99.00;100576.88;6049574;28;20030;-67
2023/07/20 00:31:31;;;;;;;1.57;1.00;;;;;;;14.56;98.20;100586.13;6049123;28;20030;-68
2023/07/20 00:34:27;;;;;;;4.10;1.00;;;;;;;14.45;98.69;100583.00;6054679;28;20026;-68
2023/07/20 00:37:22;;;;;;;1.83;0.80;;;;;;;14.60;98.64;100591.94;6049323;28;20026;-68
2023/07/20 00:40:18;;;;;;;1.00;0.70;;;;;;;14.34;99.08;100570.06;6057471;28;20045;-68
2023/07/20 00:43:13;;;;;;;1.13;0.67;;;;;;;14.23;100.00;100577.41;6049506;28;20265;-68
2023/07/20 00:46:09;;;;;;;2.23;0.83;;;;;;;14.22;100.00;100566.91;6057590;28;20125;-68
2023/07/20 00:49:06;;;;;;;2.10;0.80;;;;;;;14.11;100.00;100569.94;6049202;28;20029;-68
2023/07/20 00:52:03;;;;;;;2.22;0.90;;;;;;;14.05;100.00;100584.78;6048163;28;20049;-68
2023/07/20 00:54:58;;;;;;;2.85;0.80;;;;;;;13.89;100.00;100565.38;6048746;28;20036;-67
2023/07/20 00:57:54;;;;;;;1.50;1.03;;;;;;;13.92;100.00;100576.50;6058947;28;20030;-67
2023/07/20 01:00:49;;;;;;;2.50;0.85;;;;;;;13.78;100.00;100560.41;6048899;28;20267;-67
2023/07/20 01:03:44;;;;;;;1.58;0.90;;;;;;;13.84;100.00;100587.19;6067988;28;20044;-67
2023/07/20 01:07:23;;;;;;;1.80;1.07;;;;;;;13.75;100.00;100596.22;6055809;28;20033;-68
2023/07/20 01:10:25;;;;;;;2.00;0.82;;;;;;;13.67;100.00;100597.03;6050726;28;20498;-67
2023/07/20 01:13:21;;;;;;;2.38;1.02;;;;;;;13.57;100.00;100574.25;6046879;28;20029;-67
2023/07/20 01:16:17;;;;;;;2.83;1.35;;;;;;;13.59;100.00;100578.41;6048703;28;20034;-67
2023/07/20 01:19:14;;;;;;;2.22;1.20;;;;;;;13.75;100.00;100574.91;6048701;28;20065;-67
2023/07/20 01:22:26;;;;;;;2.95;0.93;;;;;;;13.66;100.00;100591.91;6049272;28;20049;-68
2023/07/20 01:25:35;;;;;;;3.65;1.20;;;;;;;13.52;100.00;100592.56;6051309;28;20436;-68
2023/07/20 01:29:18;;;;;;;2.10;1.08;;;;;;;13.32;100.00;100583.25;6053508;28;20041;-68
2023/07/20 01:32:15;;;;;;;2.10;1.27;;;;;;;13.44;100.00;100582.75;6044672;28;20041;-68
2023/07/20 01:35:10;;;;;;;2.08;1.27;;;;;;;13.62;100.00;100585.22;6059306;28;20022;-68
2023/07/20 01:38:07;;;;;;;2.67;1.17;;;;;;;13.78;100.00;100592.38;6052388;28;20044;-67
2023/07/20 01:41:02;;;;;;;2.33;1.05;;;;;;;13.88;100.00;100596.53;6051470;28;20034;-67
2023/07/20 01:43:59;;;;;;;1.67;0.90;;;;;;;13.81;100.00;100595.53;6050934;28;20491;-67
2023/07/20 01:46:54;;;;;;;1.40;0.98;;;;;;;13.82;100.00;100586.53;6052806;28;20028;-68
2023/07/20 01:49:49;;;;;;;2.67;1.00;;;;;;;13.77;100.00;100588.88;6052727;28;20461;-68
2023/07/20 01:52:45;;;;;;;3.50;0.87;;;;;;;13.75;100.00;100585.56;6052268;28;20740;-68
2023/07/20 01:55:40;;;;;;;1.00;0.70;;;;;;;13.68;100.00;100589.88;6051785;28;20034;-68
2023/07/20 01:58:35;;;;;;;2.53;1.20;;;;;;;13.74;100.00;100599.88;6052365;28;20112;-67
2023/07/20 02:01:31;;;;;;;1.97;1.10;;;;;;;13.70;100.00;100587.88;6056126;28;20030;-67
2023/07/20 02:04:26;;;;;;;1.83;1.00;;;;;;;13.80;100.00;100572.56;6075593;28;20017;-68
2023/07/20 02:07:21;;;;;;;2.03;1.10;;;;;;;13.71;100.00;100570.91;6065851;28;20037;-67
2023/07/20 02:10:17;;;;;;;4.20;1.00;;;;;;;13.68;100.00;100576.56;6052287;28;20105;-68
2023/07/20 02:13:12;;;;;;;1.70;1.02;;;;;;;13.70;100.00;100587.88;6051943;28;20041;-67
2023/07/20 02:16:07;;;;;;;1.97;1.10;;;;;;;13.69;100.00;100603.06;6051509;28;20048;-68
2023/07/20 02:19:04;;;;;;;2.17;1.10;;;;;;;13.61;100.00;100594.25;6052398;28;20269;-68
2023/07/20 02:21:59;;;;;;;2.58;1.00;;;;;;;13.48;100.00;100588.59;6051746;28;20493;-67
2023/07/20 02:24:54;;;;;;;1.10;0.73;;;;;;;13.56;100.00;100591.25;6051432;28;20044;-67
2023/07/20 02:27:50;;;;;;;2.13;0.93;;;;;;;13.48;100.00;100578.75;6056525;28;20030;-67
2023/07/20 02:30:45;;;;;;;2.90;1.00;;;;;;;13.53;100.00;100586.25;6075457;28;20034;-67
2023/07/20 02:33:41;;;;;;;1.70;0.95;;;;;;;13.47;100.00;100592.25;6049802;28;20402;-67
2023/07/20 02:36:36;;;;;;;1.70;1.20;;;;;;;13.48;100.00;100604.56;6061317;28;20021;-68
2023/07/20 02:39:31;;;;;;;1.43;0.80;;;;;;;13.45;100.00;100578.28;6075505;28;20025;-68
2023/07/20 02:42:27;;;;;;;2.07;0.90;;;;;;;13.66;100.00;100586.56;6075207;28;20112;-68
2023/07/20 02:45:23;;;;;;;2.58;1.10;;;;;;;13.56;100.00;100586.72;6063052;28;20358;-67
2023/07/20 02:48:19;;;;;;;4.47;1.00;;;;;;;13.72;100.00;100586.69;6051420;28;20547;-67
2023/07/20 02:51:14;;;;;;;1.30;0.80;;;;;;;13.67;100.00;100593.53;6054779;28;20038;-67
2023/07/20 02:54:09;;;;;;;1.87;1.13;;;;;;;13.87;100.00;100578.84;6053792;28;20295;-68
2023/07/20 02:57:05;;;;;;;2.50;1.10;;;;;;;13.69;100.00;100580.91;6050825;28;20085;-67
2023/07/20 03:00:03;;;;;;;1.75;1.00;;;;;;;13.64;100.00;100589.38;6051135;28;20092;-68
2023/07/20 03:02:59;;;;;;;1.77;1.20;;;;;;;13.64;100.00;100596.56;6054592;28;20072;-67
2023/07/20 03:05:55;;;;;;;2.20;1.10;;;;;;;13.70;100.00;100601.19;6063140;28;20076;-67
2023/07/20 03:08:53;;;;;;;2.10;1.05;;;;;;;13.82;100.00;100612.34;6051599;28;20037;-67
2023/07/20 03:11:49;;;;;;;1.40;0.85;;;;;;;13.77;100.00;100601.38;6050627;28;20608;-67
2023/07/20 03:14:45;;;;;;;1.45;0.90;;;;;;;13.90;100.00;100607.84;6050304;28;20037;-68
2023/07/20 03:17:40;;;;;;;1.93;0.80;;;;;;;13.98;100.00;100607.81;6052586;28;20066;-68
2023/07/20 03:20:36;;;;;;;1.63;0.90;;;;;;;14.04;100.00;100607.16;6050441;28;20030;-68
2023/07/20 03:23:31;;;;;;;1.95;1.02;;;;;;;14.02;100.00;100606.47;6049900;28;20342;-68
2023/07/20 03:26:27;;;;;;;1.55;0.98;;;;;;;13.83;100.00;100616.69;6050282;28;20446;-68
2023/07/20 03:29:22;;;;;;;1.50;1.20;;;;;;;13.70;100.00;100617.19;6060709;28;20038;-67
2023/07/20 03:32:18;;;;;;;2.53;0.93;;;;;;;13.79;100.00;100613.53;6072082;28;20021;-68
2023/07/20 03:35:15;;;;;;;2.95;1.13;;;;;;;13.73;100.00;100608.84;6054566;28;20280;-67
2023/07/20 03:38:11;;;;;;;2.95;0.90;;;;;;;13.65;100.00;100592.88;6050304;28;20049;-67
2023/07/20 03:41:06;;;;;;;2.83;0.93;;;;;;;13.61;100.00;100588.91;6050034;28;20079;-67
2023/07/20 03:44:01;;;;;;;5.43;1.00;;;;;;;13.72;100.00;100607.22;6050232;28;20296;-67
2023/07/20 03:46:57;;;;;;;2.05;1.10;;;;;;;13.71;100.00;100610.88;6049571;28;20026;-67
2023/07/20 03:49:52;;;;;;;2.63;0.90;;;;;;;13.69;100.00;100592.41;6050426;28;20040;-67
2023/07/20 03:52:47;;;;;;;2.10;1.07;;;;;;;13.66;100.00;100599.88;6069341;28;20131;-67
2023/07/20 03:55:47;;;;;;;2.53;1.00;;;;;;;13.62;100.00;100602.06;6072967;28;20358;-67
2023/07/20 03:58:42;;;;;;;2.47;1.10;;;;;;;13.71;100.00;100610.88;6050092;28;20145;-67
2023/07/20 04:01:39;;;;;;;1.50;0.83;;;;;;;13.97;100.00;100594.69;6049749;28;20038;-67
2023/07/20 04:04:35;;;;;;;3.05;1.10;;;;;;;13.91;100.00;100598.84;6049015;28;20269;-67
2023/07/20 04:07:30;;;;;;;2.20;1.10;;;;;;;13.98;100.00;100613.16;6061462;28;20045;-67
2023/07/20 04:10:25;;;;;;;3.03;1.00;;;;;;;14.10;100.00;100587.81;6052419;28;20389;-67
2023/07/20 04:13:21;;;;;;;2.57;1.00;;;;;;;14.25;100.00;100588.72;6055099;28;20058;-67
2023/07/20 04:16:17;;;;;;;3.67;1.08;;;;;;;14.33;100.00;100601.22;6049433;28;20336;-67
2023/07/20 04:19:12;;;;;;;1.17;0.87;;;;;;;14.34;100.00;100602.06;6049861;28;20030;-67
2023/07/20 04:22:08;;;;;;;2.28;1.10;;;;;;;14.32;100.00;100584.38;6049589;28;20034;-67
2023/07/20 04:25:03;;;;;;;1.43;0.90;;;;;;;14.48;100.00;100594.19;6054938;28;20037;-67
2023/07/20 04:27:59;;;;;;;2.20;1.00;;;;;;;14.55;100.00;100602.31;6051603;28;20335;-67
2023/07/20 04:30:54;;;;;;;3.00;0.90;;;;;;;14.54;100.00;100603.31;6049325;28;20055;-67
2023/07/20 04:33:49;;;;;;;4.20;1.10;;;;;;;14.73;100.00;100586.88;6048646;28;20018;-67
2023/07/20 04:36:45;;;;;;;3.17;1.00;;;;;;;14.66;99.85;100602.75;6053993;28;20033;-67
2023/07/20 04:39:40;;;;;;;1.30;0.90;;;;;;;14.84;99.37;100605.13;6049442;28;20115;-67
2023/07/20 04:42:35;;;;;;;2.17;1.10;;;;;;;14.76;100.00;100598.00;6049498;28;20264;-67
2023/07/20 04:45:31;;;;;;;1.90;1.10;;;;;;;14.95;98.04;100601.25;6065706;28;20485;-67
2023/07/20 04:48:26;;;;;;;2.97;1.37;;;;;;;14.96;97.32;100597.56;6071371;28;20765;-67
2023/07/20 04:51:22;;;;;;;1.13;0.83;;;;;;;14.98;97.81;100616.91;6052724;28;20026;-67
2023/07/20 04:54:18;;;;;;;2.90;1.23;;;;;;;14.89;98.73;100605.47;6049286;28;20034;-67
2023/07/20 04:57:14;;;;;;;3.08;1.10;;;;;;;14.90;98.38;100621.28;6049391;28;20373;-67
2023/07/20 05:00:11;;;;;;;2.83;1.13;;;;;;;14.92;98.44;100621.09;6056376;28;20038;-67
2023/07/20 05:03:06;;;;;;;2.38;1.10;;;;;;;14.83;99.14;100616.84;6056065;28;20105;-67
2023/07/20 05:06:02;;;;;;;2.67;1.10;;;;;;;14.90;98.96;100631.97;6069492;28;20033;-67
2023/07/20 05:08:57;;;;;;;2.08;1.00;;;;;;;14.73;100.00;100629.59;6054409;28;20049;-67
2023/07/20 05:11:52;;;;;;;2.40;1.30;;;;;;;14.67;100.00;100627.63;6061437;28;20029;-66
2023/07/20 05:14:48;;;;;;;2.83;1.30;;;;;;;14.60;100.00;100634.63;6058297;28;20280;-67
2023/07/20 05:17:43;;;;;;;2.13;1.30;;;;;;;14.67;100.00;100619.59;6072520;28;20052;-67
2023/07/20 05:20:38;;;;;;;3.87;1.30;;;;;;;14.73;100.00;100637.59;6077153;28;20423;-67
2023/07/20 05:23:34;;;;;;;4.17;1.20;;;;;;;14.75;100.00;100641.75;6076537;28;20315;-67
2023/07/20 05:26:29;;;;;;;2.33;1.20;;;;;;;14.76;100.00;100640.72;6077157;28;20033;-67
2023/07/20 05:29:25;;;;;;;4.40;1.50;;;;;;;14.76;100.00;100639.88;6061635;28;20252;-68
2023/07/20 05:32:21;;;;;;;8.55;2.95;;;;;;;14.75;100.00;100624.91;6053234;28;20498;-67
2023/07/20 05:35:17;;;;;;;6.07;2.17;;;;;;;14.93;100.00;100645.97;6052116;28;20025;-67
2023/07/20 05:38:13;;;;;;;3.80;1.65;;;;;;;14.85;100.00;100636.19;6064063;28;20087;-67
2023/07/20 05:41:10;;;;;;;7.35;1.65;;;;;;;14.92;100.00;100633.66;6076881;28;20033;-67
2023/07/20 05:44:06;;;;;;;4.82;1.60;;;;;;;15.00;100.00;100637.06;6075854;28;20057;-66
2023/07/20 05:47:02;;;;;;;5.88;2.33;;;;;;;15.06;100.00;100651.56;6076742;28;20036;-67
2023/07/20 05:49:57;;;;;;;4.65;2.30;;;;;;;15.06;100.00;100657.75;6076375;28;20119;-67
2023/07/20 05:52:53;;;;;;;4.10;1.97;;;;;;;14.91;100.00;100662.19;6076681;28;20029;-67
2023/07/20 05:55:53;;;;;;;4.68;2.60;;;;;;;14.73;100.00;100661.63;6075853;28;20453;-66
2023/07/20 05:58:48;;;;;;;;;;;;;;;14.73;100.00;100665.09;6076613;28;20053;-67
2023/07/20 06:01:44;;;;;;;3.63;1.73;;;;;;;14.46;100.00;100644.19;6076495;28;20031;-66
2023/07/20 06:04:39;;;;;;;5.38;2.05;;;;;;;14.44;100.00;100664.06;6075369;28;20022;-67
2023/07/20 06:07:38;;;;;;;4.55;2.20;;;;;;;14.39;100.00;100669.06;6076402;28;20029;-67
2023/07/20 06:10:34;;;;;;;3.97;2.13;;;;;;;14.32;100.00;100664.41;6075691;28;20481;-67
2023/07/20 06:13:29;;;;;;;6.25;2.70;;;;;;;14.08;100.00;100664.44;6075171;28;20072;-65
2023/07/20 06:16:24;;;;;;;4.53;2.67;;;;;;;14.04;100.00;100662.31;6053955;28;20057;-67
2023/07/20 06:19:22;;;;;;;4.40;2.70;;;;;;;14.06;100.00;100677.13;6051532;28;20042;-66
2023/07/20 06:22:17;;;;;;;7.90;2.22;;;;;;;13.91;100.00;100662.84;6052056;28;20021;-66
2023/07/20 06:25:13;;;;;;;6.07;2.10;;;;;;;14.06;100.00;100677.13;6051063;28;20091;-66
2023/07/20 06:28:08;;;;;;;3.87;1.80;;;;;;;13.98;100.00;100679.81;6041767;28;20037;-66
2023/07/20 06:31:03;;;;;;;3.67;1.67;;;;;;;14.00;100.00;100690.28;6064342;28;20024;-65
2023/07/20 06:33:59;;;;;;;3.42;1.80;;;;;;;13.99;100.00;100686.81;6061496;28;20289;-66
2023/07/20 06:36:54;;;;;;;3.75;2.10;;;;;;;14.02;100.00;100689.13;6048438;28;20064;-65
2023/07/20 06:39:50;;;;;;;4.00;2.10;;;;;;;14.02;100.00;100688.31;6071985;28;20041;-64
2023/07/20 06:42:45;;;;;;;4.10;2.37;;;;;;;14.29;100.00;100686.06;6072476;28;20061;-64
2023/07/20 06:45:41;;;;;;;4.67;2.50;;;;;;;14.31;100.00;100688.59;6071891;28;20365;-64
2023/07/20 06:48:37;;;;;;;5.15;2.67;;;;;;;14.40;100.00;100692.09;6070763;28;20065;-64
2023/07/20 06:51:32;;;;;;;6.07;2.53;;;;;;;14.37;100.00;100677.25;6057737;28;20037;-64
2023/07/20 06:54:27;;;;;;;5.27;2.93;;;;;;;14.37;100.00;100668.44;6048988;28;20391;-64
2023/07/20 06:57:23;;;;;;;4.55;2.50;;;;;;;14.51;100.00;100689.06;6069468;28;20276;-64
2023/07/20 07:00:18;;;;;;;5.07;2.83;;;;;;;14.54;100.00;100667.38;6057242;28;20026;-64
2023/07/20 07:03:14;;;;;;;5.28;2.72;;;;;;;14.97;100.00;100690.03;6046892;28;20045;-64
2023/07/20 07:06:10;;;;;;;6.23;2.70;;;;;;;14.87;100.00;100691.06;6064290;28;20435;-64
2023/07/20 07:09:05;;;;;;;5.75;3.30;;;;;;;14.95;100.00;100682.19;6054535;28;20088;-64
2023/07/20 07:12:00;;;;;;;6.18;3.30;;;;;;;15.01;100.00;100673.47;6051284;28;20493;-65
2023/07/20 07:14:56;;;;;;;5.70;3.20;;;;;;;15.29;100.00;100688.00;6046528;28;20474;-64
2023/07/20 07:17:51;;;;;;;4.40;2.65;;;;;;;15.35;100.00;100679.28;6047664;28;20116;-64
2023/07/20 07:20:51;;;;;;;5.50;2.50;;;;;;;15.66;100.00;100689.09;6046638;28;20056;-65
2023/07/20 07:23:47;;;;;;;5.72;2.80;;;;;;;15.55;100.00;100700.19;6046467;28;20017;-65
2023/07/20 07:26:42;;;;;;;4.70;2.50;;;;;;;15.55;100.00;100694.84;6056498;28;20028;-65
2023/07/20 07:29:37;;;;;;;4.37;2.60;;;;;;;15.54;100.00;100699.41;6054333;28;20030;-64
2023/07/20 07:32:33;;;;;;;4.57;2.30;;;;;;;15.41;100.00;100693.75;6049237;28;20272;-65
2023/07/20 07:35:28;;;;;;;4.17;2.57;;;;;;;15.49;100.00;100697.22;6046492;28;20026;-65
2023/07/20 07:38:23;;;;;;;4.23;2.60;;;;;;;15.59;100.00;100706.88;6046735;28;20053;-65
2023/07/20 07:41:19;;;;;;;5.47;2.85;;;;;;;15.70;100.00;100709.97;6046893;28;20038;-66
2023/07/20 07:44:14;;;;;;;3.27;2.07;;;;;;;16.43;100.00;100718.13;6049556;28;20056;-65
2023/07/20 07:47:09;;;;;;;3.23;2.10;;;;;;;16.67;100.00;100704.50;6044778;28;20995;-66
2023/07/20 07:50:05;;;;;;;3.78;1.77;;;;;;;17.32;97.03;100702.78;6046835;28;20132;-66
2023/07/20 07:53:00;;;;;;;3.53;1.40;;;;;;;17.32;92.81;100714.34;6046177;28;20030;-65
2023/07/20 07:55:56;;;;;;;2.00;1.00;;;;;;;17.57;91.27;100715.69;6045792;28;20076;-66
2023/07/20 07:58:54;;;;;;;2.93;1.40;;;;;;;17.70;88.60;100706.94;6045261;28;20413;-66
2023/07/20 08:01:49;;;;;;;1.73;1.10;;;;;;;18.03;86.57;100710.75;6051103;28;20496;-66
2023/07/20 08:04:44;;;;;;;1.30;0.80;;;;;;;17.98;84.53;100725.75;6065222;28;20021;-66
2023/07/20 08:07:40;;;;;;;2.72;1.00;;;;;;;17.84;84.59;100704.19;6061841;28;20032;-65
2023/07/20 08:10:35;;;;;;;2.60;1.38;;;;;;;18.46;83.46;100708.78;6047070;28;20029;-66
2023/07/20 08:13:31;;;;;;;2.20;1.20;;;;;;;18.34;80.86;100713.03;6045513;28;20145;-66
2023/07/20 08:16:27;;;;;;;2.30;1.35;;;;;;;18.24;80.55;100725.97;6046127;28;20030;-66
2023/07/20 08:19:23;;;;;;;1.92;1.20;;;;;;;18.18;79.99;100714.16;6048093;28;20025;-66
2023/07/20 08:22:19;;;;;;;2.55;1.10;;;;;;;18.48;78.30;100722.03;6062610;28;20029;-66
2023/07/20 08:25:14;;;;;;;4.28;1.10;;;;;;;19.08;74.23;100729.41;6057209;28;20053;-66
2023/07/20 08:28:11;;;;;;;4.83;1.33;;;;;;;19.40;74.74;100734.91;6048467;28;20458;-66
2023/07/20 08:31:07;;;;;;;5.25;1.50;;;;;;;18.67;74.37;100724.84;6051813;28;20025;-67
2023/07/20 08:34:02;;;;;;;3.25;1.52;;;;;;;18.67;75.88;100732.88;6073965;28;20033;-66
2023/07/20 08:36:58;;;;;;;2.45;1.40;;;;;;;18.86;75.41;100740.22;6050642;28;20061;-67
2023/07/20 08:39:53;;;;;;;2.85;1.20;;;;;;;18.60;73.70;100736.56;6057569;28;20038;-67
2023/07/20 08:42:49;;;;;;;2.20;0.80;;;;;;;18.31;74.27;100726.84;6051033;28;20041;-66
2023/07/20 08:45:44;;;;;;;2.00;1.33;;;;;;;18.40;72.52;100728.34;6050279;28;20068;-67
2023/07/20 08:48:41;;;;;;;3.83;1.20;;;;;;;18.38;72.18;100722.34;6048969;28;20432;-67
2023/07/20 08:51:37;;;;;;;1.52;0.75;;;;;;;19.06;69.26;100748.41;6050301;28;20541;-67
2023/07/20 08:54:34;;;;;;;2.03;1.00;;;;;;;19.67;68.15;100724.19;6049032;28;20030;-66
2023/07/20 08:57:31;;;;;;;1.15;0.80;;;;;;;19.84;65.04;100718.19;6049527;28;20037;-67
2023/07/20 09:00:29;;;;;;;1.33;0.90;;;;;;;19.75;62.93;100727.53;6050547;28;20347;-67
2023/07/20 09:03:24;;;;;;;1.85;0.90;;;;;;;20.06;63.78;100735.81;6055430;28;20018;-67
2023/07/20 09:06:19;;;;;;;1.97;0.90;;;;;;;20.10;62.54;100720.09;6058469;28;20060;-66
2023/07/20 09:09:15;;;;;;;1.47;0.80;;;;;;;20.56;58.82;100728.13;6059242;28;20532;-67
2023/07/20 09:12:15;;;;;;;1.83;0.73;;;;;;;20.64;55.87;100720.66;6072654;28;20689;-67
2023/07/20 09:15:12;;;;;;;0.30;0.30;;;;;;;21.15;52.79;100728.81;6061269;28;20151;-67
2023/07/20 09:18:07;;;;;;;1.67;0.50;;;;;;;21.46;51.28;100721.81;6048645;28;20041;-68
2023/07/20 09:21:03;;;;;;;0.80;0.50;;;;;;;21.45;52.40;100722.84;6050160;28;20041;-67
2023/07/20 09:23:59;;;;;;;1.58;0.57;;;;;;;21.69;53.15;100714.78;6050447;28;20040;-67
2023/07/20 09:26:54;;;;;;;1.27;0.83;;;;;;;21.42;52.13;100726.78;6050903;28;20026;-67
2023/07/20 09:29:51;;;;;;;2.00;0.68;;;;;;;21.26;50.88;100728.13;6052912;28;20108;-66
2023/07/20 09:32:47;;;;;;;1.85;0.52;;;;;;;21.46;48.29;100728.03;6052384;28;20440;-67
2023/07/20 09:35:43;;;;;;;1.38;0.60;;;;;;;22.24;47.46;100710.44;6055191;28;20429;-67
2023/07/20 09:38:41;;;;;;;0.75;0.50;;;;;;;22.20;45.50;100725.44;6053362;28;20036;-67
2023/07/20 09:41:42;;;;;;;0.52;0.40;;;;;;;22.40;46.42;100715.25;6052396;28;20155;-66
2023/07/20 09:44:38;;;;;;;1.85;0.70;;;;;;;21.99;46.38;100733.91;6051373;28;20029;-66
2023/07/20 09:47:35;;;;;;;0.75;0.60;;;;;;;21.27;47.16;100716.31;6052201;28;20039;-66
2023/07/20 09:50:31;;;;;;;2.60;0.75;;;;;;;20.92;47.54;100716.84;6051155;28;20045;-66
2023/07/20 09:53:27;;;;;;;1.13;0.70;;;;;;;21.70;47.53;100735.34;6060228;28;20036;-66
2023/07/20 09:56:25;;;;;;;2.60;0.80;;;;;;;21.04;48.65;100740.22;6071096;28;20025;-67
2023/07/20 09:59:20;;;;;;;1.17;0.80;;;;;;;20.46;51.11;100735.84;6049776;28;20157;-66
2023/07/20 10:02:30;;;;;;;1.30;0.60;;;;;;;20.34;51.92;100727.56;6073527;28;20029;-67
2023/07/20 10:05:28;;;;;;;1.10;0.73;;;;;;;20.72;50.99;100727.69;6062869;28;20034;-67
2023/07/20 10:08:28;;;;;;;0.75;0.55;;;;;;;21.15;48.87;100719.88;6069354;28;20033;-67
2023/07/20 10:11:26;;;;;;;0.90;0.70;;;;;;;21.56;50.05;100712.19;6068633;28;20021;-68
2023/07/20 10:14:21;;;;;;;2.35;0.68;;;;;;;22.07;49.17;100713.94;6049539;28;20322;-67
2023/07/20 10:17:17;;;;;;;1.87;0.73;;;;;;;22.48;46.78;100723.06;6067240;28;20022;-67
2023/07/20 10:20:13;;;;;;;1.30;0.80;;;;;;;22.52;46.75;100705.38;6051460;28;20268;-67
2023/07/20 10:23:08;;;;;;;2.05;1.08;;;;;;;22.69;46.51;100702.09;6051313;28;20419;-67
2023/07/20 10:26:04;;;;;;;1.27;0.70;;;;;;;22.26;45.27;100729.09;6066077;28;20064;-67
2023/07/20 10:29:00;;;;;;;1.88;0.80;;;;;;;21.94;46.80;100725.66;6050849;28;20030;-67
2023/07/20 10:31:55;;;;;;;2.60;0.70;;;;;;;21.70;47.30;100712.91;6054902;28;20040;-67
2023/07/20 10:34:52;;;;;;;3.63;1.30;;;;;;;21.69;47.32;100713.94;6050543;28;20025;-67
2023/07/20 10:37:55;;;;;;;1.15;0.68;;;;;;;22.31;47.88;100716.59;6050657;28;20022;-67
2023/07/20 10:40:54;;;;;;;1.77;0.63;;;;;;;22.31;45.41;100710.38;6053300;28;20096;-67
2023/07/20 10:43:50;;;;;;;2.80;0.65;;;;;;;21.81;47.08;100701.41;6045230;28;20105;-68
2023/07/20 10:46:46;;;;;;;2.75;0.70;;;;;;;21.32;47.27;100716.47;6046126;28;20037;-67
2023/07/20 10:50:03;;;;;;;0.57;0.47;;;;;;;21.09;47.63;100715.38;6045844;28;20018;-67
2023/07/20 10:53:18;;;;;;;1.48;0.63;;;;;;;21.37;47.17;100713.13;6051865;28;20026;-66
2023/07/20 10:56:15;;;;;;;1.23;0.63;;;;;;;21.34;46.96;100709.00;6034384;28;20739;-67
2023/07/20 10:59:23;;;;;;;0.80;0.50;;;;;;;20.87;47.84;100701.31;6061707;28;20033;-66
2023/07/20 11:02:19;;;;;;;1.10;0.32;;;;;;;21.52;46.79;100710.97;6048015;28;20036;-67
2023/07/20 11:05:32;;;;;;;2.67;0.52;;;;;;;22.30;44.57;100709.53;6056672;28;20025;-67
2023/07/20 11:08:42;;;;;;;0.95;0.50;;;;;;;22.19;45.13;100701.34;6058226;28;20030;-66
2023/07/20 11:11:38;;;;;;;1.60;0.45;;;;;;;22.63;44.03;100708.38;6046465;28;20505;-67
2023/07/20 11:14:34;;;;;;;1.95;0.60;;;;;;;22.43;44.64;100703.16;6045060;28;20104;-67
2023/07/20 11:17:31;;;;;;;2.13;0.60;;;;;;;21.55;46.35;100707.00;6046570;28;20037;-67
2023/07/20 11:20:26;;;;;;;2.70;0.60;;;;;;;21.00;47.59;100709.34;6058542;28;20273;-67
2023/07/20 11:23:22;;;;;;;3.03;0.50;;;;;;;20.75;48.54;100697.63;6067744;28;20029;-67
2023/07/20 11:26:19;;;;;;;3.13;0.80;;;;;;;20.45;48.54;100696.44;6047385;28;20041;-67
2023/07/20 11:29:16;;;;;;;0.73;0.50;;;;;;;20.54;48.61;100706.81;6047154;28;20488;-67
2023/07/20 11:32:11;;;;;;;2.72;0.68;;;;;;;20.69;48.13;100714.63;6047089;28;20454;-67
2023/07/20 11:35:12;;;;;;;0.93;0.50;;;;;;;20.48;48.72;100706.81;6046703;28;20032;-68
2023/07/20 11:38:08;;;;;;;0.77;0.60;;;;;;;20.47;48.71;100716.75;6046823;28;20105;-66
2023/07/20 11:41:03;;;;;;;1.17;0.60;;;;;;;20.32;49.25;100701.88;6047270;28;20037;-67
2023/07/20 11:43:59;;;;;;;2.25;0.50;;;;;;;20.28;50.00;100716.78;6047439;28;20068;-66
2023/07/20 11:47:09;;;;;;;1.45;0.57;;;;;;;20.14;49.96;100721.31;6048926;28;20026;-67
2023/07/20 11:50:05;;;;;;;1.15;0.60;;;;;;;20.24;49.63;100704.75;6070793;28;20044;-67
2023/07/20 11:53:00;;;;;;;1.05;0.90;;;;;;;21.05;48.86;100697.91;6069973;28;20456;-67
2023/07/20 11:55:55;;;;;;;0.73;0.50;;;;;;;21.50;45.20;100696.84;6059957;28;20042;-67
2023/07/20 11:58:54;;;;;;;1.00;0.50;;;;;;;21.34;46.61;100702.75;6044541;28;20273;-67
2023/07/20 12:01:50;;;;;;;1.77;0.70;;;;;;;21.05;47.40;100703.31;6051365;28;20261;-67
2023/07/20 12:04:45;;;;;;;1.40;0.67;;;;;;;20.84;48.29;100704.44;6037363;28;20381;-67
2023/07/20 12:07:41;;;;;;;2.22;0.68;;;;;;;20.53;47.58;100715.91;6046242;28;20339;-67
2023/07/20 12:10:43;;;;;;;1.00;0.70;;;;;;;20.10;48.42;100698.53;6070361;28;20021;-67
2023/07/20 12:13:44;;;;;;;2.42;0.70;;;;;;;20.44;49.94;100698.31;6069395;28;20064;-66
2023/07/20 12:16:39;;;;;;;2.28;0.60;;;;;;;20.63;49.17;100707.38;6042533;28;20105;-67
2023/07/20 12:19:38;;;;;;;0.77;0.50;;;;;;;20.53;48.35;100709.69;6045967;28;20142;-67
2023/07/20 12:22:38;;;;;;;1.85;0.60;;;;;;;20.51;47.86;100709.09;6048421;28;20041;-66
2023/07/20 12:25:39;;;;;;;2.30;0.70;;;;;;;20.20;48.13;100689.00;6057266;28;20217;-66
2023/07/20 12:28:38;;;;;;;1.98;0.75;;;;;;;20.33;48.67;100698.16;6049291;28;20069;-66
2023/07/20 12:31:36;;;;;;;1.30;0.70;;;;;;;20.95;47.22;100695.69;6049025;28;20052;-67
2023/07/20 12:34:31;;;;;;;1.90;0.70;;;;;;;21.64;45.54;100690.31;6067957;28;20021;-66
2023/07/20 12:37:27;;;;;;;1.83;0.70;;;;;;;22.34;44.15;100699.94;6055203;28;20030;-67
2023/07/20 12:40:22;;;;;;;1.65;0.60;;;;;;;22.97;43.76;100683.44;6050610;28;20053;-67
2023/07/20 12:43:17;;;;;;;2.70;0.90;;;;;;;23.26;42.49;100682.66;6052571;28;20034;-67
2023/07/20 12:46:13;;;;;;;0.60;0.60;;;;;;;23.40;40.91;100684.13;6048532;28;20135;-67
2023/07/20 12:49:08;;;;;;;3.53;0.90;;;;;;;22.72;42.33;100686.25;6048945;28;20432;-67
2023/07/20 12:52:04;;;;;;;1.33;0.73;;;;;;;22.20;42.36;100676.81;6048976;28;20029;-67
2023/07/20 12:55:01;;;;;;;4.60;0.90;;;;;;;22.00;44.17;100697.75;6047860;28;20054;-67
2023/07/20 12:57:56;;;;;;;1.00;0.70;;;;;;;21.94;43.88;100693.25;6048943;28;20030;-67
2023/07/20 13:00:51;;;;;;;2.50;0.63;;;;;;;21.53;44.55;100682.91;6059187;28;20036;-67
2023/07/20 13:03:47;;;;;;;1.15;0.60;;;;;;;22.15;45.97;100675.81;6049796;28;20110;-67
2023/07/20 13:06:42;;;;;;;1.73;0.73;;;;;;;22.73;44.39;100670.84;6048931;28;20026;-67
2023/07/20 13:09:38;;;;;;;1.40;0.80;;;;;;;22.76;41.99;100670.41;6051130;28;20034;-67
2023/07/20 13:12:34;;;;;;;1.67;0.80;;;;;;;22.23;43.19;100668.22;6072792;28;20121;-67
2023/07/20 13:15:31;;;;;;;2.28;0.80;;;;;;;21.95;44.89;100673.28;6066128;28;20026;-67
2023/07/20 13:18:27;;;;;;;2.03;0.80;;;;;;;21.78;45.04;100674.84;6051416;28;20511;-67
2023/07/20 13:21:22;;;;;;;1.87;0.83;;;;;;;21.54;46.29;100664.88;6053485;28;20037;-67
2023/07/20 13:24:17;;;;;;;2.25;0.90;;;;;;;20.99;46.31;100671.78;6052061;28;20030;-68
2023/07/20 13:27:13;;;;;;;1.40;0.90;;;;;;;21.46;46.57;100668.66;6053066;28;20485;-67
2023/07/20 13:30:11;;;;;;;1.03;0.60;;;;;;;22.35;44.67;100688.06;6060332;28;20030;-67
2023/07/20 13:33:06;;;;;;;1.50;0.60;;;;;;;23.34;43.49;100682.31;6052515;28;20044;-68
2023/07/20 13:36:02;;;;;;;2.80;0.80;;;;;;;23.25;42.52;100664.75;6052426;28;20022;-67
2023/07/20 13:38:57;;;;;;;0.63;0.60;;;;;;;23.30;41.81;100661.34;6059493;28;20659;-67